createdAt,value
2019-05-21T00:04:11.701Z,12.31
2019-05-21T00:09:12.020Z,13.62
2019-05-21T00:14:13.243Z,12.51
2019-05-21T00:19:01.450Z,12.63
2019-05-21T00:24:22.654Z,12.01
2019-05-21T00:29:23.064Z,12.59
2019-05-21T00:39:27.201Z,11.74
2019-05-21T00:44:15.924Z,10.93
2019-05-21T00:49:23.309Z,10.70
2019-05-21T00:54:43.566Z,9.96
2019-05-21T01:04:59.448Z,7.94
2019-05-21T01:09:32.355Z,7.73
2019-05-21T01:14:40.697Z,6.96
2019-05-21T01:20:00.836Z,7.16
2019-05-21T01:25:02.019Z,6.86
2019-05-21T01:30:03.289Z,7.46
2019-05-21T01:35:16.048Z,7.58
2019-05-21T01:40:03.695Z,6.77
2019-05-21T01:45:04.903Z,7.52
2019-05-21T01:50:06.153Z,6.78
2019-05-21T01:54:53.567Z,7.56
2019-05-21T02:00:14.611Z,7.49
2019-05-21T02:05:02.947Z,7.09
2019-05-21T02:10:11.490Z,8.34
2019-05-21T02:15:31.814Z,7.66
2019-05-21T02:20:19.074Z,7.79
2019-05-21T02:25:27.489Z,8.93
2019-05-21T02:30:34.645Z,9.06
2019-05-21T02:35:55.781Z,10.74
2019-05-21T02:40:57.096Z,9.35
2019-05-21T02:45:44.507Z,10.31
2019-05-21T02:50:51.978Z,10.30
2019-05-21T02:56:13.108Z,8.89
2019-05-21T03:01:15.512Z,9.26
2019-05-21T03:06:14.903Z,8.45
2019-05-21T03:11:14.865Z,7.31
2019-05-21T03:16:02.265Z,7.47
2019-05-21T03:21:22.601Z,7.05
2019-05-21T03:26:22.760Z,7.07
2019-05-21T03:31:11.061Z,7.38
2019-05-21T03:36:33.357Z,7.43
2019-05-21T03:41:18.817Z,7.56
2019-05-21T03:46:25.961Z,7.77
2019-05-21T03:51:47.022Z,6.84
2019-05-21T03:56:35.350Z,7.94
2019-05-21T04:01:56.661Z,7.97
2019-05-21T04:06:57.650Z,7.53
2019-05-21T04:11:46.009Z,7.82
2019-05-21T04:27:03.538Z,7.66
2019-05-21T04:32:23.545Z,6.87
2019-05-21T04:37:12.207Z,6.75
2019-05-21T04:42:19.059Z,7.00
2019-05-21T04:47:40.153Z,8.28
2019-05-21T04:52:28.839Z,6.88
2019-05-21T04:57:49.069Z,6.29
2019-05-21T05:02:36.458Z,6.58
2019-05-21T05:07:56.699Z,5.32
2019-05-21T05:12:56.918Z,5.13
2019-05-21T05:17:45.039Z,4.88
2019-05-21T05:22:53.433Z,4.47
2019-05-21T05:28:14.646Z,5.15
2019-05-21T05:33:14.911Z,4.53
2019-05-21T05:38:02.107Z,4.43
2019-05-21T05:43:11.307Z,3.65
2019-05-21T05:48:33.450Z,3.63
2019-05-21T05:53:33.606Z,3.24
2019-05-21T05:58:21.977Z,3.27
2019-05-21T06:03:42.347Z,3.15
2019-05-21T06:08:42.465Z,3.36
2019-05-21T06:13:42.868Z,3.44
2019-05-21T06:18:43.137Z,2.71
2019-05-21T06:23:44.296Z,2.75
2019-05-21T06:33:37.405Z,2.34
2019-05-21T06:38:44.696Z,2.21
2019-05-21T06:44:05.012Z,1.62
2019-05-21T06:48:52.265Z,1.69
2019-05-21T06:59:16.315Z,1.45
2019-05-21T07:04:16.690Z,1.53
2019-05-21T07:09:17.807Z,1.29
2019-05-21T07:14:19.439Z,1.29
2019-05-21T07:19:09.690Z,1.57
2019-05-21T07:24:30.064Z,1.62
2019-05-21T07:29:30.360Z,1.51
2019-05-21T07:34:17.547Z,1.32
2019-05-21T07:39:38.595Z,1.44
2019-05-21T07:44:39.878Z,1.34
2019-05-21T07:49:40.883Z,1.18
2019-05-21T07:54:40.995Z,1.29
2019-05-21T07:59:29.373Z,1.26
2019-05-21T08:04:37.854Z,1.43
2019-05-21T08:09:45.173Z,1.18
2019-05-21T08:15:05.443Z,0.93
2019-05-21T08:19:53.669Z,0.92
2019-05-21T08:25:01.110Z,1.16
2019-05-21T08:30:21.363Z,1.10
2019-05-21T09:00:36.501Z,0.90
2019-05-21T09:10:40.625Z,0.70
2019-05-21T09:20:45.890Z,0.56
2019-05-21T09:25:49.278Z,0.67
2019-05-21T09:30:46.428Z,0.51
2019-05-21T09:35:46.627Z,0.61
2019-05-21T09:40:47.824Z,0.46
2019-05-21T09:45:48.132Z,0.55
2019-05-21T09:50:48.196Z,0.69
2019-05-21T09:55:36.430Z,0.76
2019-05-21T10:00:57.465Z,0.38
2019-05-21T10:05:58.847Z,0.57
2019-05-21T10:10:58.876Z,0.51
2019-05-21T10:16:01.348Z,0.69
2019-05-21T10:21:00.404Z,0.74
2019-05-21T10:26:01.446Z,0.64
2019-05-21T10:36:06.622Z,0.75
2019-05-21T10:41:08.699Z,0.76
2019-05-21T10:45:57.415Z,0.58
2019-05-21T10:51:04.820Z,0.69
2019-05-21T10:56:25.259Z,0.65
2019-05-21T11:01:25.504Z,0.74
2019-05-21T11:11:29.389Z,0.77
2019-05-21T11:16:16.760Z,0.71
2019-05-21T11:21:37.003Z,0.56
2019-05-21T11:26:37.347Z,0.74
2019-05-21T11:31:38.708Z,0.58
2019-05-21T11:36:39.036Z,0.58
2019-05-21T11:41:39.247Z,0.45
2019-05-21T11:46:39.387Z,0.66
2019-05-21T11:51:27.778Z,0.60
2019-05-21T12:01:38.888Z,0.61
2019-05-21T12:07:03.138Z,0.43
2019-05-21T12:11:46.585Z,0.48
2019-05-21T12:27:02.590Z,0.66
2019-05-21T12:32:22.792Z,0.55
2019-05-21T12:42:17.555Z,0.46
2019-05-21T12:47:37.980Z,0.52
2019-05-21T12:52:25.327Z,0.48
2019-05-21T12:57:45.804Z,0.70
2019-05-21T13:02:33.053Z,0.49
2019-05-21T13:12:55.397Z,0.46
2019-05-21T13:17:55.911Z,0.51
2019-05-21T13:22:56.125Z,0.53
2019-05-21T13:27:43.437Z,0.55
2019-05-21T13:33:03.670Z,0.43
2019-05-21T13:38:03.853Z,0.49
2019-05-21T13:43:04.135Z,0.52
2019-05-21T13:47:51.591Z,0.37
2019-05-21T13:52:58.845Z,0.57
2019-05-21T13:58:10.123Z,0.58
2019-05-21T14:03:21.410Z,0.64
2019-05-21T14:08:21.524Z,0.50
2019-05-21T14:13:22.647Z,0.52
2019-05-21T14:18:22.785Z,0.52
2019-05-21T14:23:11.071Z,0.46
2019-05-21T14:28:18.520Z,0.50
2019-05-21T14:33:38.713Z,0.47
2019-05-21T14:38:39.272Z,0.49
2019-05-21T14:43:26.695Z,0.47
2019-05-21T14:48:43.456Z,0.62
2019-05-21T14:53:53.533Z,0.52
2019-05-21T14:58:54.836Z,0.54
2019-05-21T15:03:47.129Z,0.60
2019-05-21T15:08:45.379Z,0.53
2019-05-21T15:14:05.615Z,0.41
2019-05-21T15:18:53.816Z,0.59
2019-05-21T15:24:01.335Z,0.42
2019-05-21T15:29:08.127Z,0.56
2019-05-21T15:34:29.286Z,0.58
2019-05-21T15:39:30.521Z,0.47
2019-05-21T15:44:18.727Z,0.51
2019-05-21T15:49:35.727Z,0.44
2019-05-21T15:54:46.267Z,0.39
2019-05-21T15:59:46.646Z,0.50
2019-05-21T16:04:46.673Z,0.44
2019-05-21T16:09:35.170Z,0.25
2019-05-21T16:14:42.525Z,0.35
2019-05-21T16:19:49.931Z,0.31
2019-05-21T16:25:12.280Z,0.40
2019-05-21T16:29:59.718Z,0.39
2019-05-21T16:35:19.871Z,0.69
2019-05-21T16:40:20.398Z,0.31
2019-05-21T16:45:21.383Z,0.31
2019-05-21T16:50:22.756Z,0.28
2019-05-21T16:55:23.183Z,0.28
2019-05-21T17:05:27.456Z,0.30
2019-05-21T17:11:20.938Z,0.34
2019-05-21T17:16:28.442Z,0.43
2019-05-21T17:21:35.865Z,1.06
2019-05-21T17:26:43.589Z,0.59
2019-05-21T17:42:15.718Z,0.67
2019-05-21T17:52:05.983Z,0.48
2019-05-21T17:57:14.489Z,0.49
2019-05-21T18:07:23.068Z,0.47
2019-05-21T18:12:32.455Z,0.59
2019-05-21T18:17:51.847Z,0.50
2019-05-21T18:22:39.038Z,0.59
2019-05-21T18:27:47.280Z,0.49
2019-05-21T18:33:07.570Z,0.58
2019-05-21T18:38:08.800Z,0.42
2019-05-21T18:43:09.012Z,0.43
2019-05-21T18:47:56.214Z,0.69
2019-05-21T18:53:17.658Z,0.38
2019-05-21T18:58:17.921Z,0.38
2019-05-21T19:03:25.276Z,0.66
2019-05-21T19:08:18.613Z,0.52
2019-05-21T19:13:06.154Z,0.46
2019-05-21T19:18:13.285Z,0.58
2019-05-21T19:23:34.478Z,0.51
2019-05-21T19:28:21.719Z,0.69
2019-05-21T19:33:30.143Z,0.81
2019-05-21T19:39:48.284Z,0.82
2019-05-21T19:43:59.354Z,0.71
2019-05-21T19:49:00.451Z,0.67
2019-05-21T19:53:48.820Z,0.85
2019-05-21T19:58:57.187Z,1.42
2019-05-21T20:04:17.308Z,1.45
2019-05-21T20:09:18.808Z,1.52
2019-05-21T20:14:06.257Z,1.43
2019-05-21T20:19:26.467Z,1.44
2019-05-21T20:24:15.167Z,1.14
2019-05-21T20:29:36.303Z,0.90
2019-05-21T20:34:24.591Z,1.00
2019-05-21T20:39:45.736Z,0.98
2019-05-21T20:49:49.788Z,1.00
2019-05-21T20:54:50.199Z,1.18
2019-05-21T20:59:50.409Z,1.25
2019-05-21T21:04:50.798Z,1.68
2019-05-21T21:09:50.989Z,1.10
2019-05-21T21:14:51.187Z,1.29
2019-05-21T21:19:39.356Z,1.20
2019-05-21T21:25:00.728Z,1.19
2019-05-21T21:29:47.929Z,1.30
2019-05-21T21:39:59.285Z,1.25
2019-05-21T21:45:07.809Z,1.43
2019-05-21T21:50:15.236Z,1.35
2019-05-21T21:55:35.570Z,1.20
2019-05-21T22:00:35.674Z,1.59
2019-05-21T22:05:36.946Z,1.76
2019-05-21T22:10:24.377Z,1.39
2019-05-21T22:20:35.918Z,1.47
2019-05-21T22:25:43.369Z,1.47
2019-05-21T22:31:04.561Z,1.59
2019-05-21T22:35:55.151Z,1.88
2019-05-21T22:41:06.241Z,1.62
2019-05-21T22:50:58.561Z,1.35
2019-05-21T22:56:18.784Z,1.52
2019-05-21T23:06:10.095Z,1.25
2019-05-21T23:16:35.182Z,1.44
2019-05-21T23:26:39.317Z,1.57
2019-05-21T23:31:40.416Z,1.54
2019-05-21T23:36:40.697Z,1.84
2019-05-21T23:41:40.884Z,2.00
2019-05-21T23:46:40.959Z,1.84
2019-05-21T23:51:42.016Z,1.76
2019-05-21T23:56:30.189Z,1.92
